PWSweather.com
Personal Weather Stations
Station Observations
EMMBROOK1
Emmbrook, WokinghamGB

EmmbrookWokinghamGB

Lat: 51.42698, Lon: -0.850575

Elevation: 144

Station Type: WH1081

http://www.wokinghamweather.co.uk

High Low Average
Temperature 64.6°F18.1°C 48.4°F9.1°C 56.2°F13.4°C
Dew Point 57.8°F14.3°C 45.1°F7.3°C 49.7°F9.8°C
Winds 11.5 mph 18.5 kmh 0.2 mph 0.3 kmh 6.0 mph SW9.7 kmh SW
Wind Gusts 21.3 mph34.3 kmh 1.6 mph2.6 kmh 9.0 mph14.5 kmh
Humidity 94% 51% 80%
Pressure 29.76 in1007.8 mb 29.34 in993.6 mb -
Precipitation 0.07 in1.8 mm - -
Hour Temp Dew Point Humidity Winds Wind Gusts Pressure Precip Precip Rate Daily Precip Total
12:00 AM 51.4°F10.8°C 48.6°F9.2°C 90% 2.7 mph SW4.3 kmh SW 5.4 mph8.7 kmh 29.59 in1002.0 mb 0.00 in0.0 mm 0.00 in0.0 mm 0.00 in0.0 mm
12:15 AM 51.1°F10.6°C 48.3°F9.1°C 90% 2.5 mph SW4.0 kmh SW 4.5 mph7.2 kmh 29.59 in1002.0 mb 0.00 in0.0 mm 0.00 in0.0 mm 0.00 in0.0 mm
12:30 AM 51.1°F10.6°C 48.5°F9.2°C 91% 3.7 mph WSW6.0 kmh WSW 5.4 mph8.7 kmh 29.60 in1002.4 mb 0.00 in0.0 mm 0.00 in0.0 mm 0.00 in0.0 mm
12:45 AM 51.1°F10.6°C 48.5°F9.2°C 91% 2.8 mph SW4.5 kmh SW 4.5 mph7.2 kmh 29.60 in1002.4 mb 0.00 in0.0 mm 0.00 in0.0 mm 0.00 in0.0 mm
01:00 AM 50.9°F10.5°C 48.4°F9.1°C 91% 2.9 mph SW4.7 kmh SW 4.5 mph7.2 kmh 29.61 in1002.7 mb 0.00 in0.0 mm 0.00 in0.0 mm 0.00 in0.0 mm
01:15 AM 50.9°F10.5°C 48.7°F9.3°C 92% 3.2 mph WSW5.1 kmh WSW 4.5 mph7.2 kmh 29.61 in1002.7 mb 0.00 in0.0 mm 0.00 in0.0 mm 0.00 in0.0 mm
01:30 AM 50.9°F10.5°C 48.7°F9.3°C 92% 3.6 mph SW5.8 kmh SW 4.5 mph7.2 kmh 29.61 in1002.7 mb 0.00 in0.0 mm 0.00 in0.0 mm 0.00 in0.0 mm
01:45 AM 51.1°F10.6°C 48.8°F9.3°C 92% 4.0 mph WSW6.4 kmh WSW 6.0 mph9.7 kmh 29.62 in1003.0 mb 0.00 in0.0 mm 0.00 in0.0 mm 0.00 in0.0 mm
02:00 AM 51.4°F10.8°C 49.2°F9.6°C 92% 4.0 mph SW6.4 kmh SW 5.4 mph8.7 kmh 29.62 in1003.0 mb 0.00 in0.0 mm 0.00 in0.0 mm 0.00 in0.0 mm
02:15 AM 51.6°F10.9°C 49.4°F9.7°C 92% 4.5 mph WSW7.2 kmh WSW 6.9 mph11.1 kmh 29.62 in1003.0 mb 0.00 in0.0 mm 0.00 in0.0 mm 0.00 in0.0 mm
02:30 AM 51.4°F10.8°C 49.2°F9.6°C 92% 3.0 mph SW4.8 kmh SW 5.4 mph8.7 kmh 29.62 in1003.0 mb 0.00 in0.0 mm 0.00 in0.0 mm 0.00 in0.0 mm
02:45 AM 51.3°F10.7°C 49.0°F9.4°C 92% 2.4 mph WSW3.9 kmh WSW 4.5 mph7.2 kmh 29.63 in1003.4 mb 0.00 in0.0 mm 0.00 in0.0 mm 0.00 in0.0 mm
03:00 AM 51.1°F10.6°C 48.8°F9.3°C 92% 2.6 mph WSW4.2 kmh WSW 4.5 mph7.2 kmh 29.64 in1003.7 mb 0.00 in0.0 mm 0.00 in0.0 mm 0.00 in0.0 mm
03:15 AM 50.9°F10.5°C 48.7°F9.3°C 92% 2.7 mph WSW4.3 kmh WSW 4.5 mph7.2 kmh 29.64 in1003.7 mb 0.00 in0.0 mm 0.00 in0.0 mm 0.00 in0.0 mm
03:30 AM 50.9°F10.5°C 48.7°F9.3°C 92% 1.0 mph SW1.6 kmh SW 3.8 mph6.1 kmh 29.64 in1003.7 mb 0.00 in0.0 mm 0.00 in0.0 mm 0.00 in0.0 mm
03:45 AM 50.5°F10.3°C 48.3°F9.1°C 92% 0.9 mph SW1.4 kmh SW 3.1 mph5.0 kmh 29.64 in1003.7 mb 0.00 in0.0 mm 0.00 in0.0 mm 0.00 in0.0 mm
04:00 AM 50.4°F10.2°C 48.1°F8.9°C 92% 1.2 mph SW1.9 kmh SW 2.2 mph3.5 kmh 29.65 in1004.1 mb 0.00 in0.0 mm 0.00 in0.0 mm 0.00 in0.0 mm
04:15 AM 50.0°F10.0°C 47.8°F8.8°C 92% 0.7 mph WSW1.1 kmh WSW 2.2 mph3.5 kmh 29.65 in1004.1 mb 0.00 in0.0 mm 0.00 in0.0 mm 0.00 in0.0 mm
04:30 AM 49.3°F9.6°C 47.1°F8.4°C 92% 0.4 mph WSW0.6 kmh WSW 2.2 mph3.5 kmh 29.66 in1004.4 mb 0.00 in0.0 mm 0.00 in0.0 mm 0.00 in0.0 mm
04:45 AM 48.9°F9.4°C 46.7°F8.2°C 92% 0.2 mph S0.3 kmh S 1.6 mph2.6 kmh 29.67 in1004.7 mb 0.00 in0.0 mm 0.00 in0.0 mm 0.00 in0.0 mm
05:00 AM 48.9°F9.4°C 46.7°F8.2°C 92% 2.3 mph SW3.7 kmh SW 4.5 mph7.2 kmh 29.67 in1004.7 mb 0.00 in0.0 mm 0.00 in0.0 mm 0.00 in0.0 mm
05:15 AM 49.3°F9.6°C 47.3°F8.5°C 93% 2.8 mph WSW4.5 kmh WSW 5.4 mph8.7 kmh 29.68 in1005.1 mb 0.00 in0.0 mm 0.00 in0.0 mm 0.00 in0.0 mm
05:30 AM 49.5°F9.7°C 47.5°F8.6°C 93% 2.0 mph SW3.2 kmh SW 3.8 mph6.1 kmh 29.68 in1005.1 mb 0.00 in0.0 mm 0.00 in0.0 mm 0.00 in0.0 mm
05:45 AM 49.1°F9.5°C 47.2°F8.4°C 93% 0.9 mph SW1.4 kmh SW 2.2 mph3.5 kmh 29.68 in1005.1 mb 0.00 in0.0 mm 0.00 in0.0 mm 0.00 in0.0 mm
06:00 AM 48.7°F9.3°C 46.8°F8.2°C 93% 0.8 mph SSE1.3 kmh SSE 2.2 mph3.5 kmh 29.68 in1005.1 mb 0.00 in0.0 mm 0.00 in0.0 mm 0.00 in0.0 mm
06:15 AM 48.4°F9.1°C 46.5°F8.1°C 93% 1.6 mph SE2.6 kmh SE 3.1 mph5.0 kmh 29.69 in1005.4 mb 0.00 in0.0 mm 0.00 in0.0 mm 0.00 in0.0 mm
06:30 AM 48.6°F9.2°C 46.6°F8.1°C 93% 1.1 mph SW1.8 kmh SW 2.2 mph3.5 kmh 29.70 in1005.8 mb 0.00 in0.0 mm 0.00 in0.0 mm 0.00 in0.0 mm
06:45 AM 49.3°F9.6°C 47.6°F8.7°C 94% 2.9 mph WSW4.7 kmh WSW 3.8 mph6.1 kmh 29.70 in1005.8 mb 0.00 in0.0 mm 0.00 in0.0 mm 0.00 in0.0 mm
07:00 AM 50.2°F10.1°C 48.2°F9.0°C 93% 4.6 mph WSW7.4 kmh WSW 6.9 mph11.1 kmh 29.70 in1005.8 mb 0.00 in0.0 mm 0.00 in0.0 mm 0.00 in0.0 mm
07:15 AM 50.7°F10.4°C 49.1°F9.5°C 94% 4.9 mph SW7.9 kmh SW 9.2 mph14.8 kmh 29.70 in1005.8 mb 0.00 in0.0 mm 0.00 in0.0 mm 0.00 in0.0 mm
07:30 AM 51.4°F10.8°C 49.8°F9.9°C 94% 4.5 mph WSW7.2 kmh WSW 6.9 mph11.1 kmh 29.71 in1006.1 mb 0.00 in0.0 mm 0.00 in0.0 mm 0.00 in0.0 mm
07:45 AM 52.0°F11.1°C 50.0°F10.0°C 93% 4.7 mph WSW7.6 kmh WSW 6.0 mph9.7 kmh 29.71 in1006.1 mb 0.00 in0.0 mm 0.00 in0.0 mm 0.00 in0.0 mm
08:00 AM 53.2°F11.8°C 51.0°F10.6°C 92% 6.0 mph WSW9.7 kmh WSW 8.3 mph13.4 kmh 29.72 in1006.4 mb 0.00 in0.0 mm 0.00 in0.0 mm 0.00 in0.0 mm
08:15 AM 54.1°F12.3°C 51.3°F10.7°C 90% 5.7 mph SW9.2 kmh SW 8.3 mph13.4 kmh 29.72 in1006.4 mb 0.00 in0.0 mm 0.00 in0.0 mm 0.00 in0.0 mm
08:30 AM 55.2°F12.9°C 51.7°F10.9°C 88% 7.5 mph WSW12.1 kmh WSW 11.4 mph18.3 kmh 29.73 in1006.8 mb 0.00 in0.0 mm 0.00 in0.0 mm 0.00 in0.0 mm
08:45 AM 56.5°F13.6°C 51.4°F10.8°C 83% 7.9 mph WSW12.7 kmh WSW 10.7 mph17.2 kmh 29.74 in1007.1 mb 0.00 in0.0 mm 0.00 in0.0 mm 0.00 in0.0 mm
09:00 AM 57.0°F13.9°C 51.3°F10.7°C 81% 7.2 mph SW11.6 kmh SW 10.7 mph17.2 kmh 29.74 in1007.1 mb 0.00 in0.0 mm 0.00 in0.0 mm 0.00 in0.0 mm
09:15 AM 58.3°F14.6°C 51.5°F10.8°C 78% 6.5 mph SW10.5 kmh SW 9.8 mph15.8 kmh 29.74 in1007.1 mb 0.00 in0.0 mm 0.00 in0.0 mm 0.00 in0.0 mm
09:30 AM 59.4°F15.2°C 51.1°F10.6°C 74% 5.6 mph WSW9.0 kmh WSW 8.3 mph13.4 kmh 29.74 in1007.1 mb 0.00 in0.0 mm 0.00 in0.0 mm 0.00 in0.0 mm
09:45 AM 59.9°F15.5°C 51.2°F10.7°C 73% 4.9 mph WSW7.9 kmh WSW 6.9 mph11.1 kmh 29.74 in1007.1 mb 0.00 in0.0 mm 0.00 in0.0 mm 0.00 in0.0 mm
10:00 AM 59.9°F15.5°C 50.1°F10.1°C 70% 6.1 mph WSW9.8 kmh WSW 8.3 mph13.4 kmh 29.74 in1007.1 mb 0.00 in0.0 mm 0.00 in0.0 mm 0.00 in0.0 mm
10:15 AM 60.1°F15.6°C 50.3°F10.2°C 70% 7.7 mph WSW12.4 kmh WSW 9.2 mph14.8 kmh 29.75 in1007.5 mb 0.00 in0.0 mm 0.00 in0.0 mm 0.00 in0.0 mm
10:30 AM 60.1°F15.6°C 48.7°F9.3°C 66% 5.9 mph WSW9.5 kmh WSW 10.7 mph17.2 kmh 29.75 in1007.5 mb 0.00 in0.0 mm 0.00 in0.0 mm 0.00 in0.0 mm
10:45 AM 61.2°F16.2°C 49.7°F9.8°C 66% 4.7 mph WSW7.6 kmh WSW 7.6 mph12.2 kmh 29.74 in1007.1 mb 0.00 in0.0 mm 0.00 in0.0 mm 0.00 in0.0 mm
11:00 AM 61.3°F16.3°C 49.1°F9.5°C 64% 7.6 mph WSW12.2 kmh WSW 11.4 mph18.3 kmh 29.74 in1007.1 mb 0.00 in0.0 mm 0.00 in0.0 mm 0.00 in0.0 mm
11:15 AM 63.5°F17.5°C 48.9°F9.4°C 59% 6.7 mph WSW10.8 kmh WSW 9.2 mph14.8 kmh 29.75 in1007.5 mb 0.00 in0.0 mm 0.00 in0.0 mm 0.00 in0.0 mm
11:30 AM 63.5°F17.5°C 47.5°F8.6°C 56% 7.1 mph NW11.4 kmh NW 11.4 mph18.3 kmh 29.76 in1007.8 mb 0.00 in0.0 mm 0.00 in0.0 mm 0.00 in0.0 mm
11:45 AM 64.0°F17.8°C 47.6°F8.7°C 55% 7.9 mph WNW12.7 kmh WNW 10.7 mph17.2 kmh 29.76 in1007.8 mb 0.00 in0.0 mm 0.00 in0.0 mm 0.00 in0.0 mm
12:00 PM 64.0°F17.8°C 46.6°F8.1°C 53% 8.8 mph SW14.2 kmh SW 13.0 mph20.9 kmh 29.76 in1007.8 mb 0.00 in0.0 mm 0.00 in0.0 mm 0.00 in0.0 mm
12:15 PM 63.5°F17.5°C 45.1°F7.3°C 51% 8.3 mph WSW13.4 kmh WSW 12.1 mph19.5 kmh 29.75 in1007.5 mb 0.00 in0.0 mm 0.00 in0.0 mm 0.00 in0.0 mm
12:30 PM 63.7°F17.6°C 45.2°F7.3°C 51% 7.2 mph SSW11.6 kmh SSW 10.7 mph17.2 kmh 29.75 in1007.5 mb 0.00 in0.0 mm 0.00 in0.0 mm 0.00 in0.0 mm
12:45 PM 64.6°F18.1°C 47.1°F8.4°C 53% 9.2 mph WSW14.8 kmh WSW 11.4 mph18.3 kmh 29.75 in1007.5 mb 0.00 in0.0 mm 0.00 in0.0 mm 0.00 in0.0 mm
01:00 PM 64.4°F18.0°C 46.9°F8.3°C 53% 7.7 mph W12.4 kmh W 11.4 mph18.3 kmh 29.75 in1007.5 mb 0.00 in0.0 mm 0.00 in0.0 mm 0.00 in0.0 mm
01:15 PM 64.0°F17.8°C 48.5°F9.2°C 57% 6.8 mph WSW10.9 kmh WSW 10.7 mph17.2 kmh 29.75 in1007.5 mb 0.00 in0.0 mm 0.00 in0.0 mm 0.00 in0.0 mm
01:30 PM 63.0°F17.2°C 48.0°F8.9°C 58% 6.1 mph SW9.8 kmh SW 12.1 mph19.5 kmh 29.75 in1007.5 mb 0.00 in0.0 mm 0.00 in0.0 mm 0.00 in0.0 mm
01:45 PM 62.4°F16.9°C 48.4°F9.1°C 60% 7.5 mph SW12.1 kmh SW 15.2 mph24.5 kmh 29.75 in1007.5 mb 0.00 in0.0 mm 0.00 in0.0 mm 0.00 in0.0 mm
02:00 PM 62.2°F16.8°C 47.7°F8.7°C 59% 6.9 mph WSW11.1 kmh WSW 11.4 mph18.3 kmh 29.74 in1007.1 mb 0.00 in0.0 mm 0.00 in0.0 mm 0.00 in0.0 mm
02:15 PM 62.1°F16.7°C 48.5°F9.2°C 61% 6.1 mph SW9.8 kmh SW 9.2 mph14.8 kmh 29.73 in1006.8 mb 0.00 in0.0 mm 0.00 in0.0 mm 0.00 in0.0 mm
02:30 PM 62.2°F16.8°C 49.1°F9.5°C 62% 6.9 mph W11.1 kmh W 9.8 mph15.8 kmh 29.73 in1006.8 mb 0.00 in0.0 mm 0.00 in0.0 mm 0.00 in0.0 mm
02:45 PM 61.7°F16.5°C 48.6°F9.2°C 62% 4.4 mph SW7.1 kmh SW 7.6 mph12.2 kmh 29.73 in1006.8 mb 0.00 in0.0 mm 0.00 in0.0 mm 0.00 in0.0 mm
03:00 PM 60.1°F15.6°C 49.1°F9.5°C 67% 4.7 mph SSW7.6 kmh SSW 7.6 mph12.2 kmh 29.73 in1006.8 mb 0.00 in0.0 mm 0.00 in0.0 mm 0.00 in0.0 mm
03:15 PM 59.4°F15.2°C 51.1°F10.6°C 74% 3.3 mph SW5.3 kmh SW 5.4 mph8.7 kmh 29.73 in1006.8 mb 0.00 in0.0 mm 0.00 in0.0 mm 0.00 in0.0 mm
03:30 PM 60.1°F15.6°C 52.1°F11.2°C 75% 4.9 mph SW7.9 kmh SW 6.0 mph9.7 kmh 29.71 in1006.1 mb 0.00 in0.0 mm 0.00 in0.0 mm 0.00 in0.0 mm
03:45 PM 60.1°F15.6°C 51.8°F11.0°C 74% 3.5 mph SW5.6 kmh SW 6.9 mph11.1 kmh 29.71 in1006.1 mb 0.00 in0.0 mm 0.00 in0.0 mm 0.00 in0.0 mm
04:00 PM 61.3°F16.3°C 51.5°F10.8°C 70% 6.5 mph S10.5 kmh S 10.7 mph17.2 kmh 29.70 in1005.8 mb 0.00 in0.0 mm 0.00 in0.0 mm 0.00 in0.0 mm
04:15 PM 61.7°F16.5°C 49.0°F9.4°C 63% 7.7 mph WSW12.4 kmh WSW 10.7 mph17.2 kmh 29.70 in1005.8 mb 0.00 in0.0 mm 0.00 in0.0 mm 0.00 in0.0 mm
04:30 PM 61.2°F16.2°C 48.9°F9.4°C 64% 6.9 mph SW11.1 kmh SW 11.4 mph18.3 kmh 29.70 in1005.8 mb 0.00 in0.0 mm 0.00 in0.0 mm 0.00 in0.0 mm
04:45 PM 60.1°F15.6°C 48.7°F9.3°C 66% 7.6 mph SW12.2 kmh SW 11.4 mph18.3 kmh 29.68 in1005.1 mb 0.00 in0.0 mm 0.00 in0.0 mm 0.00 in0.0 mm
05:00 PM 59.9°F15.5°C 49.3°F9.6°C 68% 6.1 mph SSW9.8 kmh SSW 9.8 mph15.8 kmh 29.67 in1004.7 mb 0.00 in0.0 mm 0.00 in0.0 mm 0.00 in0.0 mm
05:15 PM 59.9°F15.5°C 49.3°F9.6°C 68% 7.1 mph S11.4 kmh S 10.7 mph17.2 kmh 29.66 in1004.4 mb 0.00 in0.0 mm 0.00 in0.0 mm 0.00 in0.0 mm
05:30 PM 59.7°F15.4°C 48.4°F9.1°C 66% 7.1 mph S11.4 kmh S 13.0 mph20.9 kmh 29.65 in1004.1 mb 0.00 in0.0 mm 0.00 in0.0 mm 0.00 in0.0 mm
05:45 PM 59.5°F15.3°C 49.0°F9.4°C 68% 7.3 mph S11.7 kmh S 11.4 mph18.3 kmh 29.64 in1003.7 mb 0.00 in0.0 mm 0.00 in0.0 mm 0.00 in0.0 mm
06:00 PM 59.0°F15.0°C 48.5°F9.2°C 68% 7.2 mph SW11.6 kmh SW 11.4 mph18.3 kmh 29.64 in1003.7 mb 0.00 in0.0 mm 0.00 in0.0 mm 0.00 in0.0 mm
06:15 PM 58.6°F14.8°C 49.3°F9.6°C 71% 6.9 mph SSW11.1 kmh SSW 10.7 mph17.2 kmh 29.63 in1003.4 mb 0.00 in0.0 mm 0.00 in0.0 mm 0.00 in0.0 mm
06:30 PM 57.9°F14.4°C 49.0°F9.4°C 72% 4.8 mph SW7.7 kmh SW 7.6 mph12.2 kmh 29.62 in1003.0 mb 0.00 in0.0 mm 0.00 in0.0 mm 0.00 in0.0 mm
06:45 PM 57.2°F14.0°C 49.7°F9.8°C 76% 5.5 mph S8.9 kmh S 11.4 mph18.3 kmh 29.62 in1003.0 mb 0.00 in0.0 mm 0.00 in0.0 mm 0.00 in0.0 mm
07:00 PM 56.8°F13.8°C 50.4°F10.2°C 79% 5.3 mph SW8.5 kmh SW 10.7 mph17.2 kmh 29.61 in1002.7 mb 0.00 in0.0 mm 0.00 in0.0 mm 0.00 in0.0 mm
07:15 PM 56.3°F13.5°C 49.9°F9.9°C 79% 9.0 mph S14.5 kmh S 13.0 mph20.9 kmh 29.60 in1002.4 mb 0.00 in0.0 mm 0.00 in0.0 mm 0.00 in0.0 mm
07:30 PM 55.6°F13.1°C 50.2°F10.1°C 82% 4.2 mph SSE6.8 kmh SSE 6.0 mph9.7 kmh 29.59 in1002.0 mb 0.01 in0.3 mm 0.04 in1.0 mm 0.01 in0.3 mm
07:45 PM 55.0°F12.8°C 50.6°F10.3°C 85% 8.1 mph SSE13.0 kmh SSE 11.4 mph18.3 kmh 29.56 in1001.0 mb 0.02 in0.5 mm 0.04 in1.0 mm 0.02 in0.5 mm
08:00 PM 54.7°F12.6°C 50.9°F10.5°C 87% 8.9 mph SSE14.3 kmh SSE 14.5 mph23.3 kmh 29.55 in1000.7 mb 0.02 in0.5 mm 0.00 in0.0 mm 0.02 in0.5 mm
08:15 PM 54.7°F12.6°C 51.2°F10.7°C 88% 8.3 mph S13.4 kmh S 15.9 mph25.6 kmh 29.53 in1000.0 mb 0.02 in0.5 mm 0.00 in0.0 mm 0.02 in0.5 mm
08:30 PM 54.5°F12.5°C 51.3°F10.7°C 89% 9.2 mph SSE14.8 kmh SSE 13.6 mph21.9 kmh 29.51 in999.3 mb 0.02 in0.5 mm 0.00 in0.0 mm 0.04 in1.0 mm
08:45 PM 54.5°F12.5°C 51.3°F10.7°C 89% 7.3 mph S11.7 kmh S 11.4 mph18.3 kmh 29.50 in999.0 mb 0.01 in0.3 mm 0.00 in0.0 mm 0.04 in1.0 mm
09:00 PM 54.7°F12.6°C 51.8°F11.0°C 90% 8.9 mph SSE14.3 kmh SSE 12.1 mph19.5 kmh 29.47 in998.0 mb 0.01 in0.3 mm 0.00 in0.0 mm 0.04 in1.0 mm
09:15 PM 54.9°F12.7°C 52.3°F11.3°C 91% 10.9 mph SSE17.5 kmh SSE 21.3 mph34.3 kmh 29.46 in997.6 mb 0.02 in0.5 mm 0.04 in1.0 mm 0.05 in1.3 mm
09:30 PM 55.0°F12.8°C 52.5°F11.4°C 91% 11.5 mph SSE18.5 kmh SSE 15.9 mph25.6 kmh 29.45 in997.3 mb 0.01 in0.3 mm 0.00 in0.0 mm 0.05 in1.3 mm
09:45 PM 55.4°F13.0°C 53.4°F11.9°C 93% 9.1 mph S14.6 kmh S 14.5 mph23.3 kmh 29.43 in996.6 mb 0.02 in0.5 mm 0.04 in1.0 mm 0.06 in1.5 mm
10:00 PM 55.9°F13.3°C 54.0°F12.2°C 93% 9.2 mph SE14.8 kmh SE 14.5 mph23.3 kmh 29.41 in995.9 mb 0.01 in0.3 mm 0.00 in0.0 mm 0.06 in1.5 mm
10:15 PM 56.3°F13.5°C 54.6°F12.6°C 94% 8.0 mph S12.9 kmh S 15.2 mph24.5 kmh 29.40 in995.6 mb 0.02 in0.5 mm 0.04 in1.0 mm 0.07 in1.8 mm
10:30 PM 57.0°F13.9°C 55.3°F12.9°C 94% 7.2 mph SSW11.6 kmh SSW 15.2 mph24.5 kmh 29.38 in994.9 mb 0.01 in0.3 mm 0.00 in0.0 mm 0.07 in1.8 mm
10:45 PM 58.1°F14.5°C 56.4°F13.6°C 94% 6.1 mph SSW9.8 kmh SSW 8.3 mph13.4 kmh 29.37 in994.6 mb 0.01 in0.3 mm 0.00 in0.0 mm 0.07 in1.8 mm
11:00 PM 59.0°F15.0°C 57.0°F13.9°C 93% 9.2 mph SW14.8 kmh SW 13.6 mph21.9 kmh 29.36 in994.2 mb 0.00 in0.0 mm 0.00 in0.0 mm 0.05 in1.3 mm
11:15 PM 59.4°F15.2°C 57.6°F14.2°C 94% 7.4 mph WSW11.9 kmh WSW 13.0 mph20.9 kmh 29.35 in993.9 mb 0.00 in0.0 mm 0.00 in0.0 mm 0.05 in1.3 mm
11:30 PM 59.5°F15.3°C 57.8°F14.3°C 94% 11.3 mph WSW18.2 kmh WSW 19.0 mph30.6 kmh 29.34 in993.6 mb 0.00 in0.0 mm 0.00 in0.0 mm 0.05 in1.3 mm
11:45 PM 59.4°F15.2°C 57.6°F14.2°C 94% 10.9 mph WSW17.5 kmh WSW 15.2 mph24.5 kmh 29.34 in993.6 mb 0.00 in0.0 mm 0.00 in0.0 mm 0.05 in1.3 mm